createdAt,value
2022-08-21T00:00:29.597Z,101579.31
2022-08-21T00:03:00.135Z,101574.47
2022-08-21T00:05:27.636Z,101583.75
2022-08-21T00:07:54.971Z,101579.63
2022-08-21T00:10:21.955Z,101579.22
2022-08-21T00:12:49.431Z,101580.38
2022-08-21T00:15:20.634Z,101583.25
2022-08-21T00:17:47.385Z,101573.66
2022-08-21T00:20:16.467Z,101580.38
2022-08-21T00:22:43.607Z,101578.09
2022-08-21T00:25:11.080Z,101576.38
2022-08-21T00:27:37.874Z,101562.34
2022-08-21T00:30:07.196Z,101570.94
2022-08-21T00:32:34.814Z,101569.53
2022-08-21T00:35:01.621Z,101567.25
2022-08-21T00:37:28.184Z,101565.53
2022-08-21T00:39:57.525Z,101567.53
2022-08-21T00:42:24.106Z,101565.25
2022-08-21T00:44:51.657Z,101562.66
2022-08-21T00:47:19.842Z,101568.41
2022-08-21T00:49:46.592Z,101561.25
2022-08-21T00:52:22.934Z,101563.97
2022-08-21T00:54:51.641Z,101556.09
2022-08-21T00:57:26.773Z,101559.97
2022-08-21T00:59:58.909Z,101557.09
2022-08-21T01:02:25.672Z,101564.25
2022-08-21T01:04:52.875Z,101554.94
2022-08-21T01:07:20.954Z,101566.53
2022-08-21T01:09:49.899Z,101564.53
2022-08-21T01:12:16.773Z,101559.09
2022-08-21T01:14:43.782Z,101564.69
2022-08-21T01:17:13.551Z,101565.84
2022-08-21T01:19:40.977Z,101560.81
2022-08-21T01:22:08.153Z,101560.25
2022-08-21T01:24:35.507Z,101570.72
2022-08-21T01:27:03.785Z,101569.84
2022-08-21T01:29:34.630Z,101566.84
2022-08-21T01:32:06.386Z,101562.97
2022-08-21T01:34:39.311Z,101561.97
2022-08-21T01:37:06.592Z,101563.28
2022-08-21T01:39:33.391Z,101563.56
2022-08-21T01:42:00.122Z,101555.84
2022-08-21T01:44:27.850Z,101558.13
2022-08-21T01:46:54.974Z,101562.13
2022-08-21T01:49:22.051Z,101555.97
2022-08-21T01:51:48.664Z,101556.94
2022-08-21T01:54:15.398Z,101560.41
2022-08-21T01:56:49.498Z,101560.28
2022-08-21T01:59:16.155Z,101561.13
2022-08-21T02:01:42.733Z,101557.56
2022-08-21T02:04:11.887Z,101560.13
2022-08-21T02:06:38.639Z,101559.13
2022-08-21T02:09:07.380Z,101556.13
2022-08-21T02:11:34.792Z,101551.69
2022-08-21T02:14:05.782Z,101554.84
2022-08-21T02:16:32.412Z,101550.66
2022-08-21T02:18:59.927Z,101550.78
2022-08-21T02:21:26.810Z,101548.06
2022-08-21T02:23:58.502Z,101540.78
2022-08-21T02:26:25.383Z,101535.59
2022-08-21T02:28:52.202Z,101543.31
2022-08-21T02:31:18.783Z,101537.59
2022-08-21T02:33:45.481Z,101534.44
2022-08-21T02:36:12.534Z,101535.44
2022-08-21T02:38:41.529Z,101535.31
2022-08-21T02:41:14.100Z,101538.75
2022-08-21T02:43:41.658Z,101537.75
2022-08-21T02:46:10.088Z,101531.44
2022-08-21T02:48:36.969Z,101528.00
2022-08-21T02:51:11.750Z,101526.56
2022-08-21T02:53:41.262Z,101521.41
2022-08-21T02:56:11.853Z,101526.56
2022-08-21T02:58:42.810Z,101521.84
2022-08-21T03:01:11.266Z,101521.41
2022-08-21T03:03:44.658Z,101517.56
2022-08-21T03:06:13.943Z,101511.97
2022-08-21T03:08:40.795Z,101519.41
2022-08-21T03:11:08.667Z,101519.69
2022-08-21T03:13:40.423Z,101515.13
2022-08-21T03:16:09.994Z,101506.97
2022-08-21T03:18:37.431Z,101512.41
2022-08-21T03:21:05.089Z,101502.53
2022-08-21T03:23:32.773Z,101505.09
2022-08-21T03:25:59.803Z,101519.56
2022-08-21T03:28:26.718Z,101518.56
2022-08-21T03:30:53.831Z,101511.41
2022-08-21T03:33:25.194Z,101514.13
2022-08-21T03:36:05.344Z,101514.56
2022-08-21T03:38:34.214Z,101511.41
2022-08-21T03:41:02.034Z,101511.97
2022-08-21T03:43:32.678Z,101508.25
2022-08-21T03:46:02.208Z,101514.25
2022-08-21T03:48:28.800Z,101512.09
2022-08-21T03:50:55.665Z,101513.66
2022-08-21T03:53:26.683Z,101511.50
2022-08-21T03:55:53.565Z,101518.09
2022-08-21T03:58:23.719Z,101518.50
2022-08-21T04:00:56.539Z,101514.31
2022-08-21T04:03:27.626Z,101516.47
2022-08-21T04:05:54.240Z,101509.72
2022-08-21T04:08:20.936Z,101514.56
2022-08-21T04:10:50.896Z,101515.81
2022-08-21T04:13:19.174Z,101512.53
2022-08-21T04:15:45.771Z,101505.50
2022-08-21T04:18:12.664Z,101514.06
2022-08-21T04:20:40.522Z,101502.91
2022-08-21T04:23:11.502Z,101504.19
2022-08-21T04:25:38.091Z,101502.59
2022-08-21T04:28:04.991Z,101509.03
2022-08-21T04:30:31.713Z,101504.84
2022-08-21T04:32:59.429Z,101509.84
2022-08-21T04:35:28.968Z,101517.66
2022-08-21T04:37:56.026Z,101513.78
2022-08-21T04:40:25.727Z,101510.47
2022-08-21T04:43:21.534Z,101505.19
2022-08-21T04:45:50.074Z,101512.34
2022-08-21T04:48:19.911Z,101515.78
2022-08-21T04:50:52.364Z,101514.78
2022-08-21T04:53:38.523Z,101518.34
2022-08-21T04:56:09.524Z,101525.50
2022-08-21T04:58:38.245Z,101520.19
2022-08-21T05:01:07.726Z,101531.19
2022-08-21T05:03:37.655Z,101533.78
2022-08-21T05:06:11.363Z,101536.34
2022-08-21T05:08:39.316Z,101545.09
2022-08-21T05:11:06.624Z,101542.81
2022-08-21T05:13:37.914Z,101538.00
2022-08-21T05:16:04.680Z,101534.00
2022-08-21T05:18:31.238Z,101538.44
2022-08-21T05:20:58.051Z,101534.72
2022-08-21T05:23:26.497Z,101537.44
2022-08-21T05:25:54.272Z,101544.72
2022-08-21T05:28:20.833Z,101543.72
2022-08-21T05:30:47.635Z,101551.75
2022-08-21T05:33:16.123Z,101545.31
2022-08-21T05:35:42.691Z,101540.59
2022-08-21T05:38:17.857Z,101546.63
2022-08-21T05:40:46.191Z,101549.94
2022-08-21T05:43:14.141Z,101554.09
2022-08-21T05:45:42.625Z,101559.25
2022-08-21T05:48:21.544Z,101559.84
2022-08-21T05:50:50.308Z,101564.84
2022-08-21T05:53:22.098Z,101564.34
2022-08-21T05:55:49.253Z,101559.34
2022-08-21T05:58:18.998Z,101561.66
2022-08-21T06:00:48.286Z,101561.13
2022-08-21T06:03:25.172Z,101566.00
2022-08-21T06:05:53.274Z,101559.16
2022-08-21T06:08:21.152Z,101556.88
2022-08-21T06:10:49.318Z,101557.91
2022-08-21T06:13:21.811Z,101558.75
2022-08-21T06:15:49.433Z,101561.50
2022-08-21T06:18:16.838Z,101561.50
2022-08-21T06:20:44.130Z,101562.94
2022-08-21T06:23:12.561Z,101561.00
2022-08-21T06:25:39.098Z,101562.13
2022-08-21T06:28:08.605Z,101568.69
2022-08-21T06:30:37.060Z,101559.91
2022-08-21T06:33:07.861Z,101564.72
2022-08-21T06:35:35.548Z,101562.28
2022-08-21T06:38:02.192Z,101577.72
2022-08-21T06:40:30.009Z,101567.72
2022-08-21T06:42:58.639Z,101567.91
2022-08-21T06:45:25.621Z,101567.28
2022-08-21T06:47:54.947Z,101567.59
2022-08-21T06:50:21.437Z,101560.06
2022-08-21T06:52:48.025Z,101564.13
2022-08-21T06:55:22.309Z,101562.72
2022-08-21T06:57:52.551Z,101564.06
2022-08-21T07:00:20.346Z,101566.22
2022-08-21T07:02:46.945Z,101568.19
2022-08-21T07:05:17.993Z,101569.19
2022-08-21T07:07:45.403Z,101565.22
2022-08-21T07:10:22.009Z,101566.00
2022-08-21T07:12:49.599Z,101564.38
2022-08-21T07:15:18.087Z,101552.59
2022-08-21T07:17:44.693Z,101552.78
2022-08-21T07:20:11.355Z,101558.84
2022-08-21T07:22:41.199Z,101558.38
2022-08-21T07:25:08.411Z,101560.81
2022-08-21T07:27:34.998Z,101559.47
2022-08-21T07:30:01.910Z,101561.53
2022-08-21T07:32:28.474Z,101555.53
2022-08-21T07:34:56.547Z,101552.31
2022-08-21T07:37:23.249Z,101550.94
2022-08-21T07:39:50.006Z,101561.41
2022-08-21T07:42:17.941Z,101551.78
2022-08-21T07:44:45.335Z,101546.44
2022-08-21T07:47:11.986Z,101558.72
2022-08-21T07:49:38.765Z,101558.56
2022-08-21T07:52:05.350Z,101556.63
2022-08-21T07:54:34.429Z,101554.22
2022-08-21T07:57:02.068Z,101550.63
2022-08-21T07:59:29.210Z,101540.81
2022-08-21T08:01:55.942Z,101551.06
2022-08-21T08:04:26.711Z,101552.44
2022-08-21T08:06:53.700Z,101555.84
2022-08-21T08:09:20.730Z,101553.78
2022-08-21T08:11:47.364Z,101552.03
2022-08-21T08:14:18.457Z,101549.06
2022-08-21T08:16:45.262Z,101552.44
2022-08-21T08:19:11.793Z,101551.47
2022-08-21T08:21:39.292Z,101545.91
2022-08-21T08:24:18.758Z,101543.38
2022-08-21T08:26:46.810Z,101555.09
2022-08-21T08:29:20.426Z,101552.09
2022-08-21T08:31:46.945Z,101548.72
2022-08-21T08:34:25.474Z,101542.56
2022-08-21T08:36:52.383Z,101550.00
2022-08-21T08:39:26.747Z,101540.25
2022-08-21T08:42:04.964Z,101530.00
2022-08-21T08:44:58.570Z,101532.16
2022-08-21T08:47:27.386Z,101528.69
2022-08-21T08:50:00.952Z,101523.47
2022-08-21T08:52:37.308Z,101524.78
2022-08-21T08:55:15.284Z,101514.44
2022-08-21T08:57:46.511Z,101516.69
2022-08-21T09:00:20.153Z,101514.84
2022-08-21T09:02:47.445Z,101509.28
2022-08-21T09:05:27.901Z,101504.59
2022-08-21T09:08:19.406Z,101509.03
2022-08-21T09:11:02.075Z,101507.94
2022-08-21T09:13:56.231Z,101510.44
2022-08-21T09:17:15.637Z,101512.41
2022-08-21T09:20:49.865Z,101506.03
2022-08-21T09:23:35.796Z,101503.94
2022-08-21T09:26:14.239Z,101502.22
2022-08-21T09:28:43.879Z,101502.47
2022-08-21T09:31:24.435Z,101500.66
2022-08-21T09:34:00.917Z,101504.72
2022-08-21T09:36:35.122Z,101508.78
2022-08-21T09:39:01.741Z,101502.03
2022-08-21T09:41:32.081Z,101499.91
2022-08-21T09:43:59.941Z,101508.25
2022-08-21T09:46:28.641Z,101505.81
2022-08-21T09:48:59.913Z,101506.75
2022-08-21T09:51:37.684Z,101504.97
2022-08-21T09:54:08.399Z,101503.41
2022-08-21T09:56:54.658Z,101502.22
2022-08-21T09:59:36.758Z,101498.88
2022-08-21T10:02:32.749Z,101508.22
2022-08-21T10:05:01.296Z,101509.75
2022-08-21T10:07:31.187Z,101509.78
2022-08-21T10:10:15.712Z,101505.75
2022-08-21T10:13:18.770Z,101491.50
2022-08-21T10:16:00.679Z,101493.84
2022-08-21T10:18:36.482Z,101489.41
2022-08-21T10:21:22.718Z,101494.06
2022-08-21T10:24:31.750Z,101496.41
2022-08-21T10:27:04.615Z,101499.47
2022-08-21T10:29:40.697Z,101494.81
2022-08-21T10:32:26.350Z,101493.13
2022-08-21T10:35:14.441Z,101500.97
2022-08-21T10:38:10.543Z,101497.78
2022-08-21T10:41:02.049Z,101494.81
2022-08-21T10:43:56.754Z,101495.88
2022-08-21T10:46:37.415Z,101490.56
2022-08-21T10:49:21.565Z,101491.88
2022-08-21T10:51:57.137Z,101483.56
2022-08-21T10:54:47.549Z,101490.41
2022-08-21T10:57:32.288Z,101492.06
2022-08-21T11:00:13.219Z,101485.00
2022-08-21T11:02:47.255Z,101494.81
2022-08-21T11:05:20.385Z,101489.69
2022-08-21T11:07:52.658Z,101490.13
2022-08-21T11:10:59.962Z,101496.09
2022-08-21T11:13:49.752Z,101491.66
2022-08-21T11:16:46.344Z,101491.03
2022-08-21T11:19:36.036Z,101483.38
2022-08-21T11:22:32.683Z,101484.03
2022-08-21T11:25:16.767Z,101478.25
2022-08-21T11:27:53.537Z,101481.22
2022-08-21T11:30:20.138Z,101478.25
2022-08-21T11:32:51.315Z,101473.56
2022-08-21T11:35:33.447Z,101480.78
2022-08-21T11:38:38.748Z,101479.31
2022-08-21T11:41:20.118Z,101478.22
2022-08-21T11:44:03.439Z,101479.47
2022-08-21T11:46:34.579Z,101474.38
2022-08-21T11:49:17.242Z,101470.97
2022-08-21T11:52:17.365Z,101468.00
2022-08-21T11:55:03.915Z,101468.66
2022-08-21T11:57:40.177Z,101464.22
2022-08-21T12:00:14.667Z,101463.16
2022-08-21T12:02:47.374Z,101468.03
2022-08-21T12:05:39.318Z,101478.25
2022-08-21T12:08:10.941Z,101474.19
2022-08-21T12:11:01.018Z,101476.28
2022-08-21T12:13:36.724Z,101483.09
2022-08-21T12:16:16.709Z,101487.75
2022-08-21T12:18:44.216Z,101484.31
2022-08-21T12:21:26.855Z,101483.66
2022-08-21T12:24:03.466Z,101481.09
2022-08-21T12:26:36.623Z,101480.84
2022-08-21T12:29:12.295Z,101478.03
2022-08-21T12:31:50.446Z,101478.25
2022-08-21T12:34:18.569Z,101483.84
2022-08-21T12:36:54.567Z,101480.88
2022-08-21T12:39:27.810Z,101481.50
2022-08-21T12:42:02.271Z,101491.50
2022-08-21T12:44:36.322Z,101486.81
2022-08-21T12:47:15.032Z,101481.94
2022-08-21T12:50:04.855Z,101478.28
2022-08-21T12:52:39.354Z,101478.66
2022-08-21T12:55:16.631Z,101473.31
2022-08-21T12:57:43.510Z,101476.47
2022-08-21T13:00:14.142Z,101476.63
2022-08-21T13:02:48.133Z,101478.91
2022-08-21T13:05:21.357Z,101474.84
2022-08-21T13:07:49.820Z,101469.97
2022-08-21T13:10:26.400Z,101471.44
2022-08-21T13:12:58.923Z,101468.16
2022-08-21T13:15:34.959Z,101461.47
2022-08-21T13:18:05.683Z,101475.50
2022-08-21T13:20:39.177Z,101473.22
2022-08-21T13:23:09.687Z,101476.03
2022-08-21T13:25:38.507Z,101474.44
2022-08-21T13:28:10.026Z,101476.94
2022-08-21T13:30:41.149Z,101481.38
2022-08-21T13:33:14.864Z,101467.66
2022-08-21T13:36:04.884Z,101476.13
2022-08-21T13:38:33.883Z,101474.19
2022-08-21T13:41:05.767Z,101471.88
2022-08-21T13:43:37.575Z,101472.81
2022-08-21T13:46:11.576Z,101464.25
2022-08-21T13:48:39.343Z,101471.72
2022-08-21T13:51:06.325Z,101467.72
2022-08-21T13:53:42.311Z,101465.38
2022-08-21T13:56:09.290Z,101456.19
2022-08-21T13:58:45.050Z,101448.50
2022-08-21T14:01:28.504Z,101452.31
2022-08-21T14:04:21.044Z,101459.78
2022-08-21T14:06:48.094Z,101454.63
2022-08-21T14:09:27.729Z,101449.22
2022-08-21T14:11:56.806Z,101449.16
2022-08-21T14:14:33.107Z,101448.44
2022-08-21T14:17:24.501Z,101446.50
2022-08-21T14:19:50.834Z,101451.59
2022-08-21T14:22:35.731Z,101442.34
2022-08-21T14:25:12.887Z,101442.63
2022-08-21T14:27:50.549Z,101445.72
2022-08-21T14:30:34.727Z,101442.72
2022-08-21T14:33:18.246Z,101443.81
2022-08-21T14:35:45.017Z,101442.09
2022-08-21T14:38:17.325Z,101437.25
2022-08-21T14:40:47.532Z,101436.00
2022-08-21T14:43:20.022Z,101447.19
2022-08-21T14:45:47.596Z,101441.97
2022-08-21T14:48:14.247Z,101439.13
2022-08-21T14:50:41.349Z,101438.81
2022-08-21T14:53:12.110Z,101433.34
2022-08-21T14:55:58.962Z,101430.38
2022-08-21T14:58:26.207Z,101437.06
2022-08-21T15:00:54.931Z,101437.81
2022-08-21T15:03:24.720Z,101438.34
2022-08-21T15:05:52.227Z,101439.88
2022-08-21T15:08:19.529Z,101439.72
2022-08-21T15:11:08.618Z,101445.56
2022-08-21T15:13:34.887Z,101449.69
2022-08-21T15:16:01.881Z,101446.09
2022-08-21T15:18:30.940Z,101450.84
2022-08-21T15:20:58.540Z,101442.31
2022-08-21T15:23:25.812Z,101443.69
2022-08-21T15:25:53.461Z,101443.72
2022-08-21T15:28:22.176Z,101444.19
2022-08-21T15:30:51.457Z,101445.03
2022-08-21T15:33:20.144Z,101443.94
2022-08-21T15:35:47.125Z,101441.00
2022-08-21T15:38:14.809Z,101446.59
2022-08-21T15:40:51.786Z,101441.53
2022-08-21T15:43:30.197Z,101440.47
2022-08-21T15:45:59.974Z,101445.84
2022-08-21T15:48:26.575Z,101442.03
2022-08-21T15:50:53.069Z,101439.94
2022-08-21T15:53:19.664Z,101441.03
2022-08-21T15:55:46.295Z,101441.03
2022-08-21T15:58:16.261Z,101441.06
2022-08-21T16:00:45.093Z,101444.28
2022-08-21T16:03:18.873Z,101449.41
2022-08-21T16:05:45.990Z,101449.19
2022-08-21T16:08:12.594Z,101449.19
2022-08-21T16:10:39.613Z,101442.41
2022-08-21T16:13:15.903Z,101438.16
2022-08-21T16:15:42.453Z,101447.97
2022-08-21T16:18:09.974Z,101445.19
2022-08-21T16:20:36.690Z,101447.97
2022-08-21T16:23:09.523Z,101446.94
2022-08-21T16:25:40.038Z,101451.00
2022-08-21T16:28:12.205Z,101443.13
2022-08-21T16:30:40.953Z,101444.41
2022-08-21T16:33:42.532Z,101442.06
2022-08-21T16:36:11.778Z,101440.38
2022-08-21T16:38:39.582Z,101432.31
2022-08-21T16:41:08.726Z,101442.97
2022-08-21T16:43:35.604Z,101435.94
2022-08-21T16:46:02.460Z,101442.09
2022-08-21T16:48:31.540Z,101443.38
2022-08-21T16:50:58.591Z,101440.19
2022-08-21T16:53:29.659Z,101443.81
2022-08-21T16:55:57.105Z,101447.19
2022-08-21T16:58:27.158Z,101451.91
2022-08-21T17:00:54.428Z,101446.56
2022-08-21T17:03:34.318Z,101449.13
2022-08-21T17:06:01.567Z,101455.06
2022-08-21T17:08:28.266Z,101449.97
2022-08-21T17:10:55.453Z,101456.56
2022-08-21T17:13:22.808Z,101449.34
2022-08-21T17:15:49.347Z,101437.22
2022-08-21T17:18:19.941Z,101438.50
2022-08-21T17:20:47.668Z,101433.38
2022-08-21T17:23:19.670Z,101444.66
2022-08-21T17:25:50.103Z,101435.94
2022-08-21T17:28:21.876Z,101449.53
2022-08-21T17:30:48.941Z,101441.69
2022-08-21T17:33:19.669Z,101447.41
2022-08-21T17:35:46.787Z,101450.81
2022-08-21T17:38:14.693Z,101448.47
2022-08-21T17:40:41.940Z,101456.97
2022-08-21T17:43:15.064Z,101459.94
2022-08-21T17:45:43.405Z,101450.16
2022-08-21T17:48:10.190Z,101458.66
2022-08-21T17:50:37.275Z,101456.09
2022-08-21T17:53:08.108Z,101452.84
2022-08-21T17:55:34.843Z,101454.13
2022-08-21T17:58:02.254Z,101453.47
2022-08-21T18:00:29.719Z,101458.53
2022-08-21T18:03:24.845Z,101454.47
2022-08-21T18:05:53.787Z,101453.59
2022-08-21T18:08:20.517Z,101453.13
2022-08-21T18:10:48.674Z,101453.69
2022-08-21T18:13:23.628Z,101455.53
2022-08-21T18:15:51.277Z,101459.78
2022-08-21T18:18:18.178Z,101452.13
2022-08-21T18:20:44.977Z,101447.25
2022-08-21T18:23:12.936Z,101456.34
2022-08-21T18:25:42.351Z,101451.84
2022-08-21T18:28:08.927Z,101455.22
2022-08-21T18:30:40.549Z,101460.47
2022-08-21T18:33:13.718Z,101466.59
2022-08-21T18:35:42.199Z,101462.56
2022-08-21T18:38:09.538Z,101465.91
2022-08-21T18:40:40.134Z,101465.66
2022-08-21T18:43:15.715Z,101462.84
2022-08-21T18:45:42.915Z,101460.69
2022-08-21T18:48:12.403Z,101468.91
2022-08-21T18:50:41.967Z,101468.63
2022-08-21T18:53:18.355Z,101473.88
2022-08-21T18:55:57.905Z,101472.97
2022-08-21T18:58:32.892Z,101480.97
2022-08-21T19:00:59.715Z,101475.41
2022-08-21T19:03:29.545Z,101474.31
2022-08-21T19:05:58.105Z,101473.38
2022-08-21T19:08:28.625Z,101467.13
2022-08-21T19:10:58.153Z,101476.38
2022-08-21T19:13:28.345Z,101480.97
2022-08-21T19:15:56.771Z,101479.66
2022-08-21T19:18:28.206Z,101485.28
2022-08-21T19:20:57.266Z,101480.91
2022-08-21T19:23:31.311Z,101481.03
2022-08-21T19:26:04.435Z,101486.63
2022-08-21T19:28:40.807Z,101481.25
2022-08-21T19:31:16.275Z,101488.16
2022-08-21T19:33:52.674Z,101487.50
2022-08-21T19:36:22.228Z,101487.22
2022-08-21T19:38:48.750Z,101494.16
2022-08-21T19:41:17.361Z,101489.41
2022-08-21T19:43:54.582Z,101495.66
2022-08-21T19:46:27.277Z,101490.09
2022-08-21T19:48:55.465Z,101494.25
2022-08-21T19:51:23.261Z,101493.78
2022-08-21T19:53:57.062Z,101494.13
2022-08-21T19:56:26.864Z,101494.69
2022-08-21T19:58:53.734Z,101487.00
2022-08-21T20:01:21.933Z,101493.06
2022-08-21T20:03:53.817Z,101494.31
2022-08-21T20:06:24.084Z,101496.38
2022-08-21T20:08:51.927Z,101496.38
2022-08-21T20:11:26.580Z,101501.88
2022-08-21T20:13:54.505Z,101505.69
2022-08-21T20:16:21.546Z,101506.53
2022-08-21T20:18:48.966Z,101498.94
2022-08-21T20:21:16.265Z,101504.44
2022-08-21T20:23:49.077Z,101504.44
2022-08-21T20:26:16.920Z,101510.13
2022-08-21T20:28:44.230Z,101500.19
2022-08-21T20:31:11.110Z,101503.97
2022-08-21T20:33:45.205Z,101499.69
2022-08-21T20:36:16.811Z,101499.03
2022-08-21T20:38:44.153Z,101496.47
2022-08-21T20:41:17.904Z,101497.66
2022-08-21T20:43:52.710Z,101497.84
2022-08-21T20:46:23.729Z,101504.59
2022-08-21T20:48:51.167Z,101505.16
2022-08-21T20:51:35.998Z,101501.91
2022-08-21T20:54:21.113Z,101499.72
2022-08-21T20:57:03.883Z,101494.59
2022-08-21T20:59:33.418Z,101489.47
2022-08-21T21:02:16.301Z,101493.63
2022-08-21T21:05:05.699Z,101489.75
2022-08-21T21:07:41.705Z,101495.59
2022-08-21T21:10:15.195Z,101493.41
2022-08-21T21:12:49.996Z,101504.06
2022-08-21T21:15:28.250Z,101505.53
2022-08-21T21:18:13.070Z,101502.69
2022-08-21T21:20:53.670Z,101501.22
2022-08-21T21:23:28.449Z,101494.25
2022-08-21T21:26:17.813Z,101494.69
2022-08-21T21:28:57.508Z,101493.19
2022-08-21T21:31:28.304Z,101495.78
2022-08-21T21:33:57.587Z,101502.81
2022-08-21T21:36:36.856Z,101498.56
2022-08-21T21:39:36.332Z,101498.72
2022-08-21T21:42:38.805Z,101497.03
2022-08-21T21:45:25.095Z,101498.06
2022-08-21T21:48:05.441Z,101494.63
2022-08-21T21:50:54.000Z,101497.56
2022-08-21T21:53:40.427Z,101496.16
2022-08-21T21:56:16.490Z,101492.94
2022-08-21T21:59:10.856Z,101500.16
2022-08-21T22:01:56.108Z,101495.06
2022-08-21T22:04:55.474Z,101501.59
2022-08-21T22:07:37.653Z,101491.50
2022-08-21T22:10:18.602Z,101489.47
2022-08-21T22:13:10.440Z,101494.75
2022-08-21T22:15:37.915Z,101492.19
2022-08-21T22:18:16.004Z,101492.56
2022-08-21T22:20:47.060Z,101495.47
2022-08-21T22:23:26.425Z,101493.75
2022-08-21T22:25:59.361Z,101491.00
2022-08-21T22:28:29.509Z,101492.91
2022-08-21T22:31:24.423Z,101493.41
2022-08-21T22:34:07.325Z,101503.19
2022-08-21T22:36:47.917Z,101503.16
2022-08-21T22:39:32.040Z,101498.72
2022-08-21T22:42:14.605Z,101499.41
2022-08-21T22:45:09.415Z,101501.81
2022-08-21T22:47:44.713Z,101497.88
2022-08-21T22:50:20.450Z,101496.66
2022-08-21T22:52:51.894Z,101493.59
2022-08-21T22:55:45.828Z,101495.97
2022-08-21T22:58:18.115Z,101492.72
2022-08-21T23:00:59.014Z,101494.91
2022-08-21T23:06:46.517Z,101484.13
2022-08-21T23:09:36.319Z,101488.06
2022-08-21T23:12:31.978Z,101486.88
2022-08-21T23:15:05.881Z,101487.88
2022-08-21T23:18:07.651Z,101482.59
2022-08-21T23:20:56.388Z,101489.94
2022-08-21T23:23:27.381Z,101491.13
2022-08-21T23:26:26.540Z,101484.97
2022-08-21T23:29:04.919Z,101483.22
2022-08-21T23:31:44.723Z,101481.50
2022-08-21T23:34:28.650Z,101483.41
2022-08-21T23:37:48.877Z,101477.91
2022-08-21T23:44:00.843Z,101469.41
2022-08-21T23:46:59.987Z,101478.59
2022-08-21T23:49:48.358Z,101473.84
2022-08-21T23:52:35.326Z,101480.19
2022-08-21T23:55:39.141Z,101474.88
2022-08-21T23:58:26.835Z,101472.44
